Time;durP1;ratioP1;P1;durP2;ratioP2;P2;SDS_P1;SDS_P2;PMS_P1;PMS_P2;Temp;Humidity;BMP_temperature;BMP_pressure;BME280_temperature;BME280_humidity;BME280_pressure;Samples;Min_cycle;Max_cycle;Signal;HPM_P1;HPM_P2
2023/01/21 00:00:13;;;;;;;27.17;17.10;;;;;;;-2.06;64.49;101899.31;687987;28;1220;-81
2023/01/21 00:00:34;;;;;;;27.52;17.30;;;;;;;-2.07;64.49;101900.94;688197;28;1384;-81
2023/01/21 00:00:55;;;;;;;27.33;17.13;;;;;;;-2.13;64.65;101895.22;688202;28;1051;-81
2023/01/21 00:01:17;;;;;;;27.00;16.27;;;;;;;-2.13;64.57;101898.69;690753;28;1246;-80
2023/01/21 00:01:37;;;;;;;28.05;15.80;;;;;;;-2.14;64.69;101894.34;690838;28;1376;-80
2023/01/21 00:01:58;;;;;;;29.60;16.10;;;;;;;-2.11;64.64;101904.84;690967;28;800;-81
2023/01/21 00:02:18;;;;;;;31.25;16.80;;;;;;;-2.13;64.79;101897.78;690818;28;1130;-80
2023/01/21 00:02:39;;;;;;;29.05;16.70;;;;;;;-2.11;64.52;101896.28;690976;28;1253;-81
2023/01/21 00:03:00;;;;;;;29.03;16.47;;;;;;;-2.09;64.54;101908.44;690886;28;1067;-80
2023/01/21 00:03:20;;;;;;;26.85;15.88;;;;;;;-2.16;65.04;101898.38;691021;28;1087;-80
2023/01/21 00:03:41;;;;;;;28.55;15.85;;;;;;;-2.02;64.57;101920.22;694061;28;755;-80
2023/01/21 00:04:02;;;;;;;28.75;16.35;;;;;;;-2.17;64.79;101899.13;696319;28;1198;-81
2023/01/21 00:04:22;;;;;;;29.60;16.30;;;;;;;-2.08;64.50;101911.94;693448;28;1967;-81
2023/01/21 00:04:43;;;;;;;28.90;16.35;;;;;;;-2.04;64.67;101924.25;693217;28;1311;-81
2023/01/21 00:05:03;;;;;;;30.95;16.40;;;;;;;-2.15;64.67;101902.75;688045;28;1038;-80
2023/01/21 00:05:24;;;;;;;29.60;16.35;;;;;;;-2.15;64.72;101912.06;685438;28;1113;-80
2023/01/21 00:05:45;;;;;;;28.90;16.13;;;;;;;-2.11;64.29;101909.09;690932;28;831;-80
2023/01/21 00:06:06;;;;;;;26.73;15.80;;;;;;;-2.11;64.97;101909.09;688066;28;1215;-80
2023/01/21 00:06:26;;;;;;;27.33;15.55;;;;;;;-2.12;65.09;101907.25;688148;28;961;-80
2023/01/21 00:06:48;;;;;;;26.98;15.60;;;;;;;-2.12;64.79;101908.16;688071;28;788;-81
2023/01/21 00:07:08;;;;;;;25.75;15.60;;;;;;;-2.11;64.88;101909.09;690737;28;989;-80
2023/01/21 00:07:29;;;;;;;28.23;16.33;;;;;;;-2.13;64.86;101900.34;690951;28;1179;-81
2023/01/21 00:08:00;;;;;;;28.52;16.42;;;;;;;-2.01;64.78;101926.22;691005;28;849;-80
2023/01/21 00:08:21;;;;;;;31.75;17.58;;;;;;;-2.04;64.86;101929.38;690876;28;1116;-80
2023/01/21 00:08:42;;;;;;;30.10;16.45;;;;;;;-2.07;64.90;101916.28;688265;28;803;-80
2023/01/21 00:09:03;;;;;;;30.52;17.05;;;;;;;-2.08;64.61;101909.38;688086;28;1115;-80
2023/01/21 00:09:24;;;;;;;29.38;16.27;;;;;;;-2.04;64.84;101919.13;688076;28;1449;-79
2023/01/21 00:09:45;;;;;;;28.77;16.30;;;;;;;-2.06;64.91;101912.97;685553;28;1034;-81
2023/01/21 00:10:05;;;;;;;27.70;16.17;;;;;;;-2.06;64.58;101910.41;687942;28;1233;-80
2023/01/21 00:10:26;;;;;;;26.70;16.10;;;;;;;-2.10;64.89;101906.66;685461;28;1172;-80
2023/01/21 00:10:47;;;;;;;26.95;16.60;;;;;;;-2.06;64.85;101912.97;690957;28;839;-81
2023/01/21 00:11:10;;;;;;;27.97;16.50;;;;;;;-2.00;64.78;101922.91;687593;28;1249;-81
2023/01/21 00:11:30;;;;;;;28.63;16.55;;;;;;;-2.04;64.81;101913.13;688257;28;1131;-81
2023/01/21 00:11:51;;;;;;;29.63;16.50;;;;;;;-2.05;64.82;101914.78;690872;28;1036;-81
2023/01/21 00:12:13;;;;;;;28.20;16.80;;;;;;;-1.99;65.03;101917.06;685395;28;1246;-80
2023/01/21 00:12:34;;;;;;;28.15;16.63;;;;;;;-2.01;64.76;101916.91;685363;28;1284;-80
2023/01/21 00:12:54;;;;;;;27.55;16.90;;;;;;;-2.03;64.82;101914.94;685660;28;765;-81
2023/01/21 00:13:15;;;;;;;29.13;17.10;;;;;;;-1.91;65.14;101928.03;685283;28;1168;-81
2023/01/21 00:13:36;;;;;;;29.05;17.13;;;;;;;-1.97;64.68;101916.44;685510;28;1142;-80
2023/01/21 00:13:57;;;;;;;28.15;16.42;;;;;;;-2.00;64.67;101908.47;682980;28;839;-81
2023/01/21 00:14:18;;;;;;;27.65;16.40;;;;;;;-1.97;64.91;101929.22;688150;28;1091;-81
2023/01/21 00:14:38;;;;;;;29.03;16.80;;;;;;;-2.04;64.86;101910.56;690839;28;979;-80
2023/01/21 00:14:59;;;;;;;29.40;17.10;;;;;;;-2.00;64.45;101923.81;691009;28;827;-80
2023/01/21 00:15:19;;;;;;;29.00;16.88;;;;;;;-1.98;64.78;101932.53;690732;28;1330;-81
2023/01/21 00:15:40;;;;;;;28.70;16.40;;;;;;;-2.02;64.95;101920.22;688273;28;1190;-81
2023/01/21 00:16:02;;;;;;;28.80;16.20;;;;;;;-2.05;64.81;101925.00;688211;28;967;-81
2023/01/21 00:16:23;;;;;;;28.92;16.00;;;;;;;-2.01;65.04;101932.25;688655;28;1040;-80
2023/01/21 00:16:44;;;;;;;28.13;15.60;;;;;;;-2.03;65.02;101928.66;690739;28;969;-80
2023/01/21 00:17:04;;;;;;;28.10;15.53;;;;;;;-2.04;64.72;101931.94;691429;28;986;-81
2023/01/21 00:17:25;;;;;;;28.48;15.98;;;;;;;-2.05;64.92;101930.13;690784;28;1331;-81
2023/01/21 00:17:45;;;;;;;29.98;16.50;;;;;;;-2.04;64.79;101920.81;688269;28;1045;-81
2023/01/21 00:18:06;;;;;;;28.30;16.40;;;;;;;-2.04;64.74;101926.81;685550;28;1110;-80
2023/01/21 00:18:27;;;;;;;27.60;15.90;;;;;;;-2.02;65.02;101935.56;688242;28;1008;-80
2023/01/21 00:18:48;;;;;;;28.53;15.53;;;;;;;-2.01;65.08;101939.91;685570;28;752;-81
2023/01/21 00:19:09;;;;;;;29.95;15.52;;;;;;;-2.03;64.99;101926.09;683125;28;1019;-80
2023/01/21 00:19:29;;;;;;;30.75;16.05;;;;;;;-2.02;64.85;101930.44;683276;28;1002;-80
2023/01/21 00:19:50;;;;;;;29.00;16.08;;;;;;;-1.99;65.00;101938.41;685571;28;897;-80
2023/01/21 00:20:19;;;;;;;27.00;15.80;;;;;;;-2.00;64.86;101928.94;690965;28;700;-80
2023/01/21 00:20:39;;;;;;;25.98;15.55;;;;;;;-2.03;64.72;101926.09;690865;28;1057;-80
2023/01/21 00:21:00;;;;;;;26.57;15.90;;;;;;;-1.98;64.89;101937.66;693613;28;947;-81
2023/01/21 00:21:21;;;;;;;28.90;16.67;;;;;;;-2.02;65.02;101935.56;693504;28;1015;-80
2023/01/21 00:21:42;;;;;;;30.75;17.25;;;;;;;-2.01;65.03;101928.78;690895;28;882;-80
2023/01/21 00:22:03;;;;;;;30.48;16.98;;;;;;;-1.95;64.81;101942.16;688093;28;1132;-80
2023/01/21 00:22:23;;;;;;;29.15;17.30;;;;;;;-2.06;64.80;101923.22;682736;29;1138;-81
2023/01/21 00:22:44;;;;;;;26.02;16.52;;;;;;;-1.98;64.76;101942.75;685558;28;956;-81
2023/01/21 00:23:04;;;;;;;26.10;16.70;;;;;;;-2.06;64.79;101923.22;688061;28;1040;-81
2023/01/21 00:23:25;;;;;;;25.77;15.73;;;;;;;-2.01;64.77;101937.38;685381;28;1171;-81
2023/01/21 00:23:53;;;;;;;30.92;16.38;;;;;;;-2.05;64.87;101934.34;685552;28;1339;-80
2023/01/21 00:24:13;;;;;;;32.35;16.33;;;;;;;-2.03;64.85;101938.88;688014;28;1963;-80
2023/01/21 00:24:34;;;;;;;33.27;16.27;;;;;;;-2.02;64.73;101939.75;685226;28;1919;-80
2023/01/21 00:25:01;;;;;;;28.63;15.90;;;;;;;-1.99;64.86;101943.53;685480;28;1105;-80
2023/01/21 00:25:22;;;;;;;28.83;16.38;;;;;;;-2.04;64.86;101931.94;685470;28;1131;-81
2023/01/21 00:25:42;;;;;;;28.50;16.40;;;;;;;-2.05;64.48;101940.34;685438;28;815;-80
2023/01/21 00:26:05;;;;;;;31.23;16.35;;;;;;;-2.01;64.81;101937.38;688047;28;1230;-80
2023/01/21 00:26:26;;;;;;;29.98;16.33;;;;;;;-2.05;65.01;101936.91;693498;28;1094;-80
2023/01/21 00:26:47;;;;;;;28.45;16.20;;;;;;;-2.09;64.94;101928.03;690567;28;1386;-80
2023/01/21 00:27:08;;;;;;;24.95;15.77;;;;;;;-2.05;64.97;101929.25;690744;28;1037;-80
2023/01/21 00:27:29;;;;;;;25.78;15.76;;;;;;;-2.01;64.68;101942.47;690865;28;1036;-80
2023/01/21 00:27:50;;;;;;;26.90;15.90;;;;;;;-2.00;64.79;101946.84;690931;28;1403;-80
2023/01/21 00:28:12;;;;;;;28.65;16.42;;;;;;;-2.01;64.76;101939.91;688105;28;1166;-80
2023/01/21 00:28:43;;;;;;;30.00;17.52;;;;;;;-1.95;64.90;101943.09;685155;28;1260;-81
2023/01/21 00:29:03;;;;;;;30.25;17.42;;;;;;;-1.99;64.63;101946.09;682013;28;1104;-80
2023/01/21 00:29:25;;;;;;;29.35;16.98;;;;;;;-2.05;64.90;101934.34;685484;28;1090;-81
2023/01/21 00:29:45;;;;;;;28.40;16.80;;;;;;;-2.01;64.78;101945.03;688287;28;959;-81
2023/01/21 00:30:07;;;;;;;27.90;16.13;;;;;;;-2.08;64.73;101935.88;685422;28;1103;-80
2023/01/21 00:30:29;;;;;;;28.02;15.60;;;;;;;-1.98;64.64;101947.88;688004;28;1198;-81
2023/01/21 00:30:50;;;;;;;26.92;15.30;;;;;;;-2.05;64.86;101945.47;689098;28;755;-80
2023/01/21 00:31:11;;;;;;;27.08;15.55;;;;;;;-2.10;64.78;101928.78;687976;28;1241;-80
2023/01/21 00:31:31;;;;;;;26.17;15.57;;;;;;;-2.07;64.72;101941.88;685428;28;1221;-80
2023/01/21 00:31:52;;;;;;;26.20;15.75;;;;;;;-2.11;64.72;101939.78;688149;28;921;-80
2023/01/21 00:32:13;;;;;;;27.38;16.13;;;;;;;-2.02;64.62;101956.03;685404;28;1088;-81
2023/01/21 00:32:34;;;;;;;25.55;16.00;;;;;;;-2.11;64.65;101943.22;685502;28;1061;-81
2023/01/21 00:32:55;;;;;;;27.10;16.30;;;;;;;-2.10;64.62;101944.13;685629;28;835;-80
2023/01/21 00:33:15;;;;;;;27.57;15.93;;;;;;;-2.02;64.83;101958.59;687933;28;1265;-81
2023/01/21 00:33:36;;;;;;;28.73;15.65;;;;;;;-2.08;64.66;101947.75;688125;28;1169;-80
2023/01/21 00:33:57;;;;;;;28.38;15.45;;;;;;;-2.13;64.53;101939.63;688282;28;854;-80
2023/01/21 00:34:29;;;;;;;26.67;15.27;;;;;;;-2.08;64.78;101958.91;688104;28;1175;-80
2023/01/21 00:34:50;;;;;;;27.55;16.08;;;;;;;-2.13;64.70;101952.41;690912;28;2043;-80
2023/01/21 00:35:11;;;;;;;28.13;15.90;;;;;;;-2.13;64.82;101954.97;690799;28;1113;-81
2023/01/21 00:35:31;;;;;;;27.77;15.75;;;;;;;-2.13;64.84;101954.06;693529;28;1282;-81
2023/01/21 00:36:00;;;;;;;27.63;15.20;;;;;;;-2.18;64.52;101948.47;690879;28;1160;-80
2023/01/21 00:36:23;;;;;;;28.45;15.20;;;;;;;-2.08;64.68;101965.66;689942;28;1100;-80
2023/01/21 00:36:44;;;;;;;29.35;15.50;;;;;;;-2.18;64.52;101942.50;688120;28;854;-80
2023/01/21 00:37:14;;;;;;;27.60;15.63;;;;;;;-2.17;64.74;101945.16;688186;28;1173;-80
2023/01/21 00:37:35;;;;;;;25.92;15.90;;;;;;;-2.13;64.74;101954.97;688154;28;993;-81
2023/01/21 00:37:56;;;;;;;25.67;16.05;;;;;;;-2.14;64.79;101952.25;688130;28;1112;-80
2023/01/21 00:38:16;;;;;;;26.05;16.13;;;;;;;-2.18;64.65;101956.16;690660;28;1203;-80
2023/01/21 00:38:37;;;;;;;26.73;15.50;;;;;;;-2.16;64.74;101956.31;690957;28;1082;-81
2023/01/21 00:38:58;;;;;;;27.03;15.30;;;;;;;-2.06;65.14;101969.25;690827;28;1002;-80
2023/01/21 00:39:19;;;;;;;26.30;15.25;;;;;;;-2.08;64.78;101963.09;693386;28;1134;-80
2023/01/21 00:39:42;;;;;;;26.33;15.83;;;;;;;-2.14;64.63;101949.69;691311;28;1080;-80
2023/01/21 00:40:04;;;;;;;30.33;16.10;;;;;;;-2.12;64.68;101953.28;693600;28;1032;-81
2023/01/21 00:40:25;;;;;;;30.48;16.00;;;;;;;-2.15;64.82;101940.22;690919;28;1059;-81
2023/01/21 00:40:45;;;;;;;29.88;15.80;;;;;;;-2.13;64.85;101946.38;687956;28;1270;-80
2023/01/21 00:41:09;;;;;;;27.20;15.95;;;;;;;-2.09;64.69;101954.50;686221;28;1418;-81
2023/01/21 00:41:30;;;;;;;27.45;16.27;;;;;;;-2.06;64.92;101964.13;682852;28;1335;-81
2023/01/21 00:41:50;;;;;;;26.15;16.15;;;;;;;-2.08;64.92;101961.44;684942;28;1133;-81
2023/01/21 00:42:11;;;;;;;27.17;16.60;;;;;;;-2.11;64.92;101950.00;685342;28;1289;-81
2023/01/21 00:42:32;;;;;;;27.83;16.83;;;;;;;-2.06;64.88;101959.03;682894;28;1266;-80
2023/01/21 00:42:52;;;;;;;28.40;17.03;;;;;;;-2.08;64.91;101956.34;685520;28;1156;-80
2023/01/21 00:43:13;;;;;;;29.10;16.70;;;;;;;-2.06;64.99;101966.69;685475;28;968;-80
2023/01/21 00:43:34;;;;;;;28.65;16.75;;;;;;;-2.08;65.03;101958.91;688223;28;1177;-80
2023/01/21 00:43:54;;;;;;;28.75;16.88;;;;;;;-2.01;64.92;101967.16;690251;28;1173;-80
2023/01/21 00:44:16;;;;;;;28.40;17.40;;;;;;;-2.12;64.89;101953.28;690805;28;1334;-80
2023/01/21 00:44:46;;;;;;;27.40;16.70;;;;;;;-2.09;65.01;101961.28;690939;28;1973;-80
2023/01/21 00:45:07;;;;;;;27.13;16.65;;;;;;;-2.05;64.85;101962.50;690755;28;1245;-81
2023/01/21 00:45:28;;;;;;;28.00;16.92;;;;;;;-2.08;65.02;101964.00;690792;28;1470;-81
2023/01/21 00:45:49;;;;;;;28.00;16.73;;;;;;;-2.08;64.83;101964.00;690923;28;1258;-80
2023/01/21 00:46:10;;;;;;;28.00;16.38;;;;;;;-2.08;64.70;101968.22;690736;28;980;-80
2023/01/21 00:46:30;;;;;;;28.50;16.42;;;;;;;-2.14;64.69;101957.38;690813;28;1423;-80
2023/01/21 00:46:51;;;;;;;28.87;16.67;;;;;;;-2.12;64.49;101963.53;690785;28;779;-80
2023/01/21 00:47:12;;;;;;;29.87;16.97;;;;;;;-2.04;64.78;101977.97;688063;28;1073;-80
2023/01/21 00:47:32;;;;;;;30.13;17.02;;;;;;;-2.12;64.72;101973.75;688202;28;1001;-80
2023/01/21 00:47:53;;;;;;;32.00;17.17;;;;;;;-2.12;64.55;101971.19;685660;28;764;-80
2023/01/21 00:48:14;;;;;;;30.73;16.75;;;;;;;-2.17;64.70;101957.97;688087;28;1316;-81
2023/01/21 00:48:35;;;;;;;32.70;16.80;;;;;;;-2.20;64.82;101961.88;685408;28;1176;-80
2023/01/21 00:48:56;;;;;;;30.73;16.58;;;;;;;-2.19;64.66;101967.16;688274;28;977;-81
2023/01/21 00:49:16;;;;;;;30.33;17.10;;;;;;;-2.16;64.91;101966.56;690763;28;1109;-80
2023/01/21 00:49:37;;;;;;;27.87;16.50;;;;;;;-2.17;64.71;101964.75;690805;28;1087;-79
2023/01/21 00:49:57;;;;;;;27.42;16.50;;;;;;;-2.18;65.02;101968.94;693721;28;1045;-81
2023/01/21 00:50:18;;;;;;;26.63;15.95;;;;;;;-2.09;64.84;101979.19;690667;28;1129;-80
2023/01/21 00:50:38;;;;;;;25.90;16.13;;;;;;;-2.17;65.01;101965.63;688110;28;1314;-81
2023/01/21 00:50:59;;;;;;;27.98;16.52;;;;;;;-2.20;64.95;101956.75;691000;28;843;-80
2023/01/21 00:51:21;;;;;;;29.23;16.70;;;;;;;-2.15;65.19;101969.28;688161;28;1518;-80
2023/01/21 00:51:42;;;;;;;29.38;16.60;;;;;;;-2.11;64.98;101962.81;688174;28;1228;-81
2023/01/21 00:52:03;;;;;;;28.38;16.42;;;;;;;-2.08;65.08;101968.22;690864;28;1049;-81
2023/01/21 00:52:23;;;;;;;28.73;16.70;;;;;;;-2.05;64.98;101978.72;693407;28;1102;-81
2023/01/21 00:52:44;;;;;;;27.60;16.40;;;;;;;-2.05;64.90;101971.06;685535;28;862;-80
2023/01/21 00:53:04;;;;;;;26.98;16.40;;;;;;;-2.00;65.18;101976.63;685385;28;1194;-81
2023/01/21 00:53:28;;;;;;;26.93;16.60;;;;;;;-2.03;65.11;101974.69;685344;28;1214;-79
2023/01/21 00:53:49;;;;;;;27.27;16.08;;;;;;;-2.03;65.26;101973.78;685422;28;842;-80
2023/01/21 00:54:10;;;;;;;27.55;15.45;;;;;;;-2.03;64.78;101969.56;690688;28;1134;-80
2023/01/21 00:54:31;;;;;;;28.35;15.85;;;;;;;-1.97;64.83;101980.38;688124;28;1502;-81
2023/01/21 00:54:52;;;;;;;29.42;16.67;;;;;;;-1.99;65.17;101984.47;683000;28;834;-80
2023/01/21 00:55:12;;;;;;;31.20;16.80;;;;;;;-2.06;64.70;101969.25;685343;28;1165;-80
2023/01/21 00:55:33;;;;;;;30.80;16.80;;;;;;;-2.07;64.90;101967.44;685527;28;1416;-80
2023/01/21 00:55:58;;;;;;;29.98;16.10;;;;;;;-2.07;64.82;101967.44;688186;28;1051;-80
2023/01/21 00:56:18;;;;;;;28.40;16.80;;;;;;;-2.04;65.04;101975.41;688067;28;1128;-81
2023/01/21 00:56:39;;;;;;;29.95;16.70;;;;;;;-1.97;65.05;101990.63;685229;28;1397;-81
2023/01/21 00:56:59;;;;;;;30.60;16.93;;;;;;;-2.06;64.80;101971.81;685552;28;919;-81
2023/01/21 00:57:21;;;;;;;28.92;16.20;;;;;;;-2.01;64.96;101975.75;682563;28;1445;-80
2023/01/21 00:57:42;;;;;;;28.73;16.77;;;;;;;-1.99;64.90;101984.47;682867;29;1369;-80
2023/01/21 00:58:02;;;;;;;31.10;17.03;;;;;;;-2.01;64.80;101983.41;685239;28;1449;-80
2023/01/21 00:58:23;;;;;;;30.93;16.90;;;;;;;-1.98;65.12;101986.25;688090;28;1069;-80
2023/01/21 00:58:44;;;;;;;27.83;15.73;;;;;;;-2.03;64.92;101974.69;682734;28;979;-80
2023/01/21 00:59:04;;;;;;;27.50;15.57;;;;;;;-1.99;64.97;101981.91;682952;28;1061;-81
2023/01/21 00:59:27;;;;;;;27.00;15.80;;;;;;;-2.02;64.81;101979.06;688626;28;1094;-81
2023/01/21 00:59:47;;;;;;;27.83;16.38;;;;;;;-2.02;64.67;101981.63;688715;28;1144;-80
2023/01/21 01:00:10;;;;;;;26.80;16.30;;;;;;;-2.06;64.79;101987.16;691234;28;1274;-81
2023/01/21 01:00:31;;;;;;;27.42;16.08;;;;;;;-1.95;68.13;101983.09;688578;28;1258;-80
2023/01/21 01:01:00;;;;;;;28.00;16.00;;;;;;;-1.81;68.81;101976.78;688777;28;771;-80
2023/01/21 01:01:21;;;;;;;27.88;15.77;;;;;;;-1.67;67.89;101986.72;691244;28;1248;-80
2023/01/21 01:01:42;;;;;;;28.27;16.67;;;;;;;-1.55;67.66;101983.56;688695;28;843;-80
2023/01/21 01:02:02;;;;;;;28.05;17.30;;;;;;;-1.45;67.07;101993.00;688581;28;1409;-80
2023/01/21 01:02:23;;;;;;;29.07;17.40;;;;;;;-1.40;66.67;101986.69;685834;28;1415;-80
2023/01/21 01:02:44;;;;;;;29.02;17.10;;;;;;;-1.35;66.63;101984.56;686061;28;1159;-80
2023/01/21 01:03:04;;;;;;;30.92;17.60;;;;;;;-1.32;65.97;101988.31;685993;28;1182;-81
2023/01/21 01:03:25;;;;;;;32.42;17.60;;;;;;;-1.25;65.86;102002.59;688577;28;1243;-81
2023/01/21 01:03:48;;;;;;;32.38;17.13;;;;;;;-1.37;65.68;101984.41;688728;28;1167;-80
2023/01/21 01:04:10;;;;;;;31.52;16.60;;;;;;;-1.34;65.50;101994.97;693953;28;1130;-80
2023/01/21 01:04:31;;;;;;;30.77;17.13;;;;;;;-1.37;65.48;101999.75;691156;28;1910;-81
2023/01/21 01:04:52;;;;;;;32.08;17.98;;;;;;;-1.45;65.57;101987.88;686071;28;1266;-80
2023/01/21 01:05:28;;;;;;;34.97;18.80;;;;;;;-1.49;65.06;101996.91;688088;28;1056;-81
2023/01/21 01:05:49;;;;;;;34.65;18.98;;;;;;;-1.54;65.28;101991.34;685913;28;945;-80
2023/01/21 01:06:20;;;;;;;33.08;18.52;;;;;;;-1.57;65.30;101992.72;685840;28;1135;-80
2023/01/21 01:06:41;;;;;;;32.70;18.30;;;;;;;-1.62;64.86;101986.28;688561;28;764;-80
2023/01/21 01:07:02;;;;;;;33.83;18.47;;;;;;;-1.58;65.01;102002.06;691313;28;822;-80
2023/01/21 01:07:23;;;;;;;33.58;18.60;;;;;;;-1.71;64.80;101984.63;691183;28;1307;-80
2023/01/21 01:07:44;;;;;;;35.00;18.53;;;;;;;-1.75;64.86;101985.06;691406;28;1163;-80
2023/01/21 01:08:05;;;;;;;35.13;18.77;;;;;;;-1.73;64.87;101996.34;691253;28;1004;-81
2023/01/21 01:08:26;;;;;;;32.47;18.08;;;;;;;-1.73;64.96;102006.59;685774;28;1093;-80
2023/01/21 01:08:48;;;;;;;31.90;17.92;;;;;;;-1.82;64.87;101991.25;688825;28;942;-81
2023/01/21 01:09:09;;;;;;;29.05;17.23;;;;;;;-1.79;65.07;102007.66;688588;28;1282;-81
2023/01/21 01:09:31;;;;;;;28.48;17.00;;;;;;;-1.77;65.06;102008.69;688548;28;1412;-81
2023/01/21 01:09:51;;;;;;;27.27;16.80;;;;;;;-1.85;65.26;101993.47;691433;28;1312;-81
2023/01/21 01:10:30;;;;;;;27.45;16.73;;;;;;;-1.85;65.03;101996.03;691304;28;1143;-80
2023/01/21 01:10:53;;;;;;;27.35;16.42;;;;;;;-1.88;64.80;101995.75;691478;28;831;-81
2023/01/21 01:11:14;;;;;;;26.63;15.93;;;;;;;-1.91;65.08;101995.47;688478;28;1024;-80
2023/01/21 01:11:35;;;;;;;26.02;15.90;;;;;;;-1.95;65.05;101991.69;689284;28;1113;-81
2023/01/21 01:11:56;;;;;;;27.60;16.58;;;;;;;-1.93;64.66;101993.50;691485;28;926;-81
2023/01/21 01:12:16;;;;;;;29.33;17.23;;;;;;;-1.99;64.86;101992.13;688665;28;1192;-80
2023/01/21 01:12:37;;;;;;;30.47;16.93;;;;;;;-1.98;64.62;101993.06;691350;28;1005;-80
2023/01/21 01:12:59;;;;;;;31.73;17.15;;;;;;;-1.96;64.62;102001.78;694165;28;882;-80
2023/01/21 01:13:20;;;;;;;30.63;16.85;;;;;;;-1.98;64.92;102004.16;693046;28;1244;-81
2023/01/21 01:13:41;;;;;;;30.13;17.23;;;;;;;-1.95;65.05;102013.81;688657;28;1051;-80
2023/01/21 01:14:02;;;;;;;27.63;16.55;;;;;;;-1.91;64.79;102020.13;685958;28;1089;-80
2023/01/21 01:14:23;;;;;;;29.03;16.33;;;;;;;-2.04;64.73;101998.44;685956;28;1050;-80
2023/01/21 01:14:43;;;;;;;28.25;16.38;;;;;;;-2.07;64.60;102003.28;688710;28;915;-80
2023/01/21 01:15:04;;;;;;;29.90;16.85;;;;;;;-1.99;64.99;102014.28;688695;28;1269;-81
2023/01/21 01:15:25;;;;;;;28.85;17.02;;;;;;;-2.01;64.75;102008.09;694439;28;1216;-81
2023/01/21 01:15:47;;;;;;;29.75;16.67;;;;;;;-2.06;64.46;102001.63;693818;28;712;-81
2023/01/21 01:16:09;;;;;;;30.08;16.67;;;;;;;-2.06;64.77;102015.31;691234;28;1031;-81
2023/01/21 01:16:30;;;;;;;30.60;16.67;;;;;;;-2.07;64.61;102013.50;694137;28;1066;-81
2023/01/21 01:16:50;;;;;;;30.60;16.97;;;;;;;-2.04;64.91;102024.03;691182;28;1274;-81
2023/01/21 01:17:11;;;;;;;29.48;17.15;;;;;;;-2.06;64.61;102014.41;685826;28;1260;-81
2023/01/21 01:17:32;;;;;;;28.15;16.95;;;;;;;-2.09;64.74;102015.91;685939;28;964;-81
2023/01/21 01:17:52;;;;;;;28.67;17.00;;;;;;;-2.14;64.80;102017.13;686039;28;818;-80
2023/01/21 01:18:13;;;;;;;28.02;16.55;;;;;;;-2.11;65.07;102026.75;685735;28;1057;-81
2023/01/21 01:18:35;;;;;;;28.23;16.92;;;;;;;-2.15;64.74;102015.31;685932;28;1175;-81
2023/01/21 01:18:56;;;;;;;26.55;16.33;;;;;;;-2.12;64.88;102015.59;684290;28;721;-81
2023/01/21 01:19:16;;;;;;;28.15;16.90;;;;;;;-2.12;64.89;102015.59;691122;28;1358;-80
2023/01/21 01:19:37;;;;;;;29.05;17.30;;;;;;;-2.08;64.86;102033.09;694060;28;1091;-80
2023/01/21 01:20:00;;;;;;;30.50;17.17;;;;;;;-2.07;64.55;102028.84;688697;28;1045;-81
2023/01/21 01:20:20;;;;;;;30.45;17.00;;;;;;;-2.09;64.90;102030.38;688480;28;1115;-81
2023/01/21 01:20:42;;;;;;;31.20;16.77;;;;;;;-2.14;64.81;102018.75;691387;28;901;-81
2023/01/21 01:21:04;;;;;;;30.95;17.08;;;;;;;-2.16;64.70;102013.47;691260;28;1189;-80
2023/01/21 01:21:25;;;;;;;30.50;16.65;;;;;;;-2.13;64.72;102028.22;691200;28;1240;-81
2023/01/21 01:21:45;;;;;;;31.13;16.30;;;;;;;-2.16;64.95;102018.59;691367;28;1063;-81
2023/01/21 01:22:06;;;;;;;30.23;16.57;;;;;;;-2.20;64.69;102016.50;691244;28;1016;-80
2023/01/21 01:22:27;;;;;;;32.17;17.02;;;;;;;-2.10;64.64;102033.69;685762;28;1423;-80
2023/01/21 01:22:47;;;;;;;30.77;17.77;;;;;;;-2.15;64.73;102024.63;688720;28;788;-80
2023/01/21 01:23:08;;;;;;;31.00;17.13;;;;;;;-2.17;64.87;102026.13;688465;28;978;-80
2023/01/21 01:23:29;;;;;;;29.53;17.07;;;;;;;-2.15;64.67;102032.31;691356;28;994;-81
2023/01/21 01:23:59;;;;;;;29.98;17.05;;;;;;;-2.12;64.67;102032.59;694114;28;747;-82
2023/01/21 01:24:20;;;;;;;28.38;16.52;;;;;;;-2.19;65.00;102020.84;693819;28;1914;-80
2023/01/21 01:24:41;;;;;;;27.95;16.17;;;;;;;-2.18;64.56;102030.34;691317;28;1348;-80
2023/01/21 01:25:05;;;;;;;27.33;16.10;;;;;;;-2.07;64.92;102057.00;688268;28;1017;-81
2023/01/21 01:25:38;;;;;;;27.80;16.42;;;;;;;-2.22;64.73;102033.34;683238;28;1022;-81
2023/01/21 01:26:06;;;;;;;28.52;16.77;;;;;;;-2.18;64.75;102034.56;685925;28;1066;-80
2023/01/21 01:26:26;;;;;;;28.67;16.50;;;;;;;-2.12;64.60;102053.06;688622;28;1021;-80
2023/01/21 01:26:47;;;;;;;28.83;16.77;;;;;;;-2.12;64.37;102047.94;688619;28;811;-80
2023/01/21 01:27:08;;;;;;;29.30;16.50;;;;;;;-2.16;64.87;102050.97;691241;28;1340;-81
2023/01/21 01:27:29;;;;;;;31.65;17.15;;;;;;;-2.17;64.73;102042.38;688594;28;1463;-81
2023/01/21 01:27:50;;;;;;;30.50;17.08;;;;;;;-2.25;64.53;102030.47;688688;28;872;-81
2023/01/21 01:28:10;;;;;;;30.42;17.35;;;;;;;-2.20;64.61;102047.19;688553;28;1009;-80
2023/01/21 01:28:33;;;;;;;28.17;16.90;;;;;;;-2.17;64.59;102042.38;689104;28;1021;-80
2023/01/21 01:28:53;;;;;;;32.97;17.27;;;;;;;-2.23;64.60;102032.44;691406;28;907;-80
2023/01/21 01:29:14;;;;;;;34.50;17.25;;;;;;;-2.20;64.88;102041.16;689869;28;997;-81
2023/01/21 01:29:34;;;;;;;34.00;17.30;;;;;;;-2.24;64.74;102039.94;688685;28;1089;-81
2023/01/21 01:29:55;;;;;;;30.80;16.60;;;;;;;-2.25;64.49;102030.47;689107;28;1164;-80
2023/01/21 01:30:16;;;;;;;29.40;16.60;;;;;;;-2.21;64.63;102050.50;688485;28;1117;-80
2023/01/21 01:30:37;;;;;;;29.02;16.50;;;;;;;-2.23;64.50;102047.78;688597;28;1367;-80
2023/01/21 01:30:59;;;;;;;27.67;16.52;;;;;;;-2.19;64.86;102048.09;688630;28;1178;-80
2023/01/21 01:31:20;;;;;;;28.52;15.88;;;;;;;-2.19;64.58;102054.09;689116;28;1051;-80
2023/01/21 01:31:42;;;;;;;28.52;15.90;;;;;;;-2.21;64.76;102047.94;692027;28;1056;-81
2023/01/21 01:32:03;;;;;;;29.75;16.10;;;;;;;-2.12;64.73;102061.66;691156;28;1035;-80
2023/01/21 01:32:23;;;;;;;28.75;16.67;;;;;;;-2.21;64.52;102055.63;691184;28;1112;-80
2023/01/21 01:32:44;;;;;;;27.58;16.40;;;;;;;-2.20;64.91;102051.38;691328;28;1274;-80
2023/01/21 01:33:05;;;;;;;27.27;16.20;;;;;;;-2.18;64.98;102057.59;688515;28;1243;-81
2023/01/21 01:33:26;;;;;;;29.10;16.07;;;;;;;-2.19;64.79;102050.66;685853;28;1332;-81
2023/01/21 01:33:47;;;;;;;30.70;16.52;;;;;;;-2.20;64.99;102057.41;685958;28;886;-80
2023/01/21 01:34:07;;;;;;;31.77;16.60;;;;;;;-2.18;64.93;102060.16;688410;28;1216;-81
2023/01/21 01:34:28;;;;;;;29.47;16.77;;;;;;;-2.19;65.04;102041.31;688597;28;1008;-81
2023/01/21 01:34:49;;;;;;;30.55;16.58;;;;;;;-2.15;64.81;102058.81;688589;28;1393;-80
2023/01/21 01:35:12;;;;;;;28.55;16.13;;;;;;;-2.03;64.90;102076.13;688550;28;1018;-80
2023/01/21 01:35:32;;;;;;;29.85;16.65;;;;;;;-2.17;64.83;102051.72;691211;28;1233;-80
2023/01/21 01:35:53;;;;;;;29.33;16.90;;;;;;;-2.18;64.95;102050.78;691411;28;933;-81
2023/01/21 01:36:23;;;;;;;31.98;17.60;;;;;;;-2.11;64.78;102062.56;691046;28;1396;-80
2023/01/21 01:36:43;;;;;;;31.60;17.60;;;;;;;-2.17;64.93;102057.72;688551;28;819;-81
2023/01/21 01:37:04;;;;;;;31.10;17.50;;;;;;;-2.18;64.65;102049.91;688454;28;1025;-81
2023/01/21 01:37:25;;;;;;;31.80;17.67;;;;;;;-2.12;64.93;102055.63;683193;28;1542;-80
2023/01/21 01:37:45;;;;;;;32.08;17.27;;;;;;;-2.16;64.85;102054.41;684906;28;989;-81
2023/01/21 01:38:08;;;;;;;31.93;17.00;;;;;;;-2.13;64.79;102058.94;691178;28;1280;-81
2023/01/21 01:38:29;;;;;;;29.52;17.05;;;;;;;-2.05;64.96;102078.50;694018;28;1199;-80
2023/01/21 01:38:50;;;;;;;32.15;17.52;;;;;;;-2.15;64.93;102063.91;691404;28;1468;-80
2023/01/21 01:39:11;;;;;;;30.30;16.88;;;;;;;-2.13;64.89;102066.59;691170;28;1216;-81
2023/01/21 01:39:32;;;;;;;30.65;16.60;;;;;;;-2.13;64.87;102064.03;688575;28;1310;-80
2023/01/21 01:40:02;;;;;;;29.58;16.23;;;;;;;-2.18;64.71;102049.91;688791;28;1214;-81
2023/01/21 01:40:22;;;;;;;30.30;16.73;;;;;;;-2.19;64.59;102053.22;688470;28;1145;-81
2023/01/21 01:40:44;;;;;;;31.60;16.90;;;;;;;-2.19;64.72;102055.78;691350;28;1030;-81